Terminal Aerodrome Forecast
Issued by NWS

Home | Current Version | Previous Version | Text Only | Print | Product List | Glossary On
Versions: 1 2 3 4 5 6 7 8 9 10 11 12 13 14 15 16 17 18 19
000
FTUS44 KLZK 250300 AAC
TAFBPK
TAF AMD
KBPK 250327Z 2503/2524 29010G20KT P6SM VCSH SCT025 OVC050
      TEMPO 2503/2505 BKN025
     FM250500 30010G20KT P6SM VCSH BKN040 OVC080
     FM250700 29009KT P6SM SCT100
     FM250900 29006KT P6SM SKC
     FM251300 27008KT P6SM SCT250
     FM251800 22008KT P6SM SCT250=

USA.gov is the U.S. government's official web portal to all federal, state and local government web resources and services.